SCAR12 EGJB-LFRK
Flight info
| Callsign | SCAR12 |
|---|---|
| Flight time | N/A |
| Altitude | 15000 |
| Route | GULDA DCT LUSIT |
| Aircraft | FS51/M-SDFGHRWY/S |
Departure
| Time | 2026-04-24 22:26 |
|---|---|
| Airport | Guernsey Airport (EGJB) |
Arrival
| Time | N/A |
|---|---|
| Airport | Caen Carpiquet airport (LFRK) |
| Time | Latitude | Longitude | Altitude | Speed | Heading |
|---|---|---|---|---|---|
| 2026-04-24 22:11 | 49.43288 | -2.59401 | 327 ft | 0 kts | 175° |
| 2026-04-24 22:15 | 49.43294 | -2.59397 | 327 ft | 1 kts | 240° |
| 2026-04-24 22:15 | 49.43295 | -2.59395 | 327 ft | 1 kts | 271° |
| 2026-04-24 22:16 | 49.43297 | -2.59404 | 327 ft | 1 kts | 329° |
| 2026-04-24 22:16 | 49.43299 | -2.59405 | 327 ft | 0 kts | 351° |
| 2026-04-24 22:19 | 49.43300 | -2.59405 | 327 ft | 0 kts | 351° |
| 2026-04-24 22:20 | 49.43301 | -2.59405 | 327 ft | 0 kts | 351° |
| 2026-04-24 22:20 | 49.43337 | -2.59402 | 327 ft | 0 kts | 351° |
| 2026-04-24 22:21 | 49.43338 | -2.59402 | 327 ft | 0 kts | 351° |
| 2026-04-24 22:21 | 49.43338 | -2.59403 | 327 ft | 0 kts | 351° |
| 2026-04-24 22:21 | 49.43340 | -2.59403 | 327 ft | 5 kts | 349° |
| 2026-04-24 22:22 | 49.43371 | -2.59408 | 327 ft | 0 kts | 265° |
| 2026-04-24 22:22 | 49.43365 | -2.59536 | 325 ft | 24 kts | 270° |
| 2026-04-24 22:22 | 49.43348 | -2.59782 | 321 ft | 23 kts | 257° |
| 2026-04-24 22:22 | 49.43342 | -2.60024 | 318 ft | 22 kts | 270° |
| 2026-04-24 22:23 | 49.43335 | -2.60256 | 315 ft | 22 kts | 263° |
| 2026-04-24 22:23 | 49.43328 | -2.60481 | 312 ft | 21 kts | 266° |
| 2026-04-24 22:23 | 49.43338 | -2.60697 | 309 ft | 20 kts | 277° |
| 2026-04-24 22:23 | 49.43361 | -2.60903 | 306 ft | 19 kts | 277° |
| 2026-04-24 22:24 | 49.43362 | -2.61105 | 303 ft | 19 kts | 264° |
| 2026-04-24 22:24 | 49.43358 | -2.61229 | 302 ft | 8 kts | 277° |
| 2026-04-24 22:24 | 49.43385 | -2.61299 | 301 ft | 8 kts | 310° |
| 2026-04-24 22:24 | 49.43424 | -2.61357 | 300 ft | 7 kts | 331° |
| 2026-04-24 22:25 | 49.43450 | -2.61369 | 301 ft | 4 kts | 357° |
| 2026-04-24 22:25 | 49.43470 | -2.61365 | 301 ft | 0 kts | 25° |
| 2026-04-24 22:25 | 49.43480 | -2.61346 | 302 ft | 9 kts | 63° |
| 2026-04-24 22:25 | 49.43490 | -2.61035 | 306 ft | 62 kts | 97° |
| 2026-04-24 22:26 | 49.43510 | -2.60107 | 383 ft | 108 kts | 82° |
| 2026-04-24 22:26 | 49.43573 | -2.58830 | 655 ft | 138 kts | 80° |
| 2026-04-24 22:26 | 49.43329 | -2.57208 | 1121 ft | 185 kts | 122° |
| 2026-04-24 22:26 | 49.42533 | -2.55375 | 1642 ft | 209 kts | 116° |
| 2026-04-24 22:27 | 49.41994 | -2.53297 | 2456 ft | 218 kts | 109° |
| 2026-04-24 22:27 | 49.41528 | -2.51149 | 2272 ft | 210 kts | 110° |
| 2026-04-24 22:27 | 49.41059 | -2.48977 | 1696 ft | 219 kts | 107° |
| 2026-04-24 22:27 | 49.40641 | -2.46860 | 1888 ft | 193 kts | 104° |
| 2026-04-24 22:28 | 49.40243 | -2.44735 | 971 ft | 222 kts | 104° |
| 2026-04-24 22:28 | 49.39835 | -2.42633 | 1397 ft | 188 kts | 104° |
| 2026-04-24 22:28 | 49.39263 | -2.40999 | 127 ft | 204 kts | 108° |
| 2026-04-24 22:28 | 49.38915 | -2.39197 | 645 ft | 152 kts | 94° |
| 2026-04-24 22:29 | 49.38481 | -2.35646 | 41 ft | 182 kts | 94° |
| 2026-04-24 22:29 | 49.38249 | -2.33788 | 208 ft | 175 kts | 95° |
| 2026-04-24 22:29 | 49.38229 | -2.31843 | 51 ft | 183 kts | 83° |
| 2026-04-24 22:30 | 49.38326 | -2.29927 | 60 ft | 183 kts | 81° |
| 2026-04-24 22:30 | 49.38469 | -2.27991 | 83 ft | 180 kts | 78° |
| 2026-04-24 22:30 | 49.38875 | -2.26202 | 237 ft | 166 kts | 56° |
| 2026-04-24 22:30 | 49.39612 | -2.25106 | 117 ft | 143 kts | 40° |
| 2026-04-24 22:31 | 49.39844 | -2.24636 | 48 ft | 0 kts | 331° |
| 2026-04-24 22:31 | 49.40750 | -2.25465 | 617 ft | 239 kts | 333° |
| 2026-04-24 22:31 | 49.42124 | -2.25561 | 819 ft | 186 kts | 28° |
| 2026-04-24 22:31 | 49.45505 | -2.23198 | 2910 ft | 226 kts | 45° |
| 2026-04-24 22:32 | 49.47688 | -2.13540 | 5339 ft | 284 kts | 105° |
| 2026-04-24 22:32 | 49.48745 | -2.00304 | 2407 ft | 367 kts | 55° |
| 2026-04-24 22:32 | 49.55357 | -1.89839 | 1566 ft | 303 kts | 45° |
| 2026-04-24 22:32 | 49.58362 | -1.85452 | 1131 ft | 274 kts | 49° |
| 2026-04-24 22:33 | 49.59904 | -1.83952 | 1113 ft | 208 kts | 24° |
| 2026-04-24 22:33 | 49.61009 | -1.83327 | 1884 ft | 153 kts | 31° |
| 2026-04-24 22:33 | 49.61811 | -1.82350 | 1317 ft | 149 kts | 59° |
| 2026-04-24 22:33 | 49.62264 | -1.81021 | 1226 ft | 126 kts | 66° |
| 2026-04-24 22:34 | 49.62478 | -1.79785 | 1009 ft | 117 kts | 89° |
| 2026-04-24 22:34 | 49.62461 | -1.78501 | 661 ft | 109 kts | 94° |
| 2026-04-24 22:34 | 49.62367 | -1.77576 | 626 ft | 0 kts | 83° |
| 2026-04-24 22:34 | 49.62383 | -1.77292 | 1560 ft | 63 kts | 84° |
| 2026-04-24 22:35 | 49.62342 | -1.76826 | 476 ft | 0 kts | 345° |
| 2026-04-24 22:35 | 49.62343 | -1.76826 | 714 ft | 0 kts | 345° |
| 2026-04-24 22:35 | 49.62463 | -1.76878 | 1334 ft | 237 kts | 339° |
| 2026-04-24 22:35 | 49.63258 | -1.77566 | 1494 ft | 183 kts | 320° |
| 2026-04-24 22:36 | 49.63800 | -1.78497 | 628 ft | 182 kts | 304° |
| 2026-04-24 22:36 | 49.64323 | -1.79790 | 602 ft | 107 kts | 324° |
| 2026-04-24 22:36 | 49.64456 | -1.80221 | 584 ft | 0 kts | 128° |